Time;durP1;ratioP1;P1;durP2;ratioP2;P2;SDS_P1;SDS_P2;PMS_P1;PMS_P2;Temp;Humidity;BMP_temperature;BMP_pressure;BME280_temperature;BME280_humidity;BME280_pressure;Samples;Min_cycle;Max_cycle;Signal;HPM_P1;HPM_P2
2024/01/01 00:00:16;;;;;;;19.03;10.50;;;8.40;1.00;;;;;;5012091;28;20203;-72
2024/01/01 00:02:42;;;;;;;18.03;10.73;;;8.40;1.00;;;;;;5031695;28;20543;-72
2024/01/01 00:05:09;;;;;;;21.50;10.13;;;8.40;1.00;;;;;;5038255;28;20933;-72
2024/01/01 00:07:35;;;;;;;24.83;12.03;;;8.40;1.00;;;;;;5041680;28;20426;-71
2024/01/01 00:10:00;;;;;;;18.10;10.80;;;8.30;1.00;;;;;;5038328;28;20441;-71
2024/01/01 00:12:26;;;;;;;16.50;9.67;;;8.30;1.00;;;;;;5019957;28;20208;-71
2024/01/01 00:14:52;;;;;;;13.80;7.47;;;8.30;1.00;;;;;;5016073;28;20232;-72
2024/01/01 00:17:17;;;;;;;13.00;8.13;;;8.30;1.00;;;;;;5032440;28;20858;-72
2024/01/01 00:19:43;;;;;;;17.00;7.60;;;8.20;1.00;;;;;;5011692;28;20202;-72
2024/01/01 00:22:09;;;;;;;17.67;8.17;;;8.00;1.00;;;;;;5011755;28;20703;-72
2024/01/01 00:24:34;;;;;;;15.87;9.07;;;8.00;1.00;;;;;;5043518;28;20208;-72
2024/01/01 00:27:00;;;;;;;15.20;8.83;;;7.90;1.00;;;;;;5033849;28;20181;-71
2024/01/01 00:29:25;;;;;;;12.83;7.00;;;7.70;1.00;;;;;;5031287;28;20627;-72
2024/01/01 00:31:52;;;;;;;20.40;7.90;;;7.70;1.00;;;;;;5040063;28;20182;-72
2024/01/01 00:34:17;;;;;;;12.40;6.70;;;7.70;1.00;;;;;;5029810;28;20675;-73
2024/01/01 00:36:43;;;;;;;14.50;7.50;;;7.60;1.00;;;;;;5036263;28;20417;-72
2024/01/01 00:39:09;;;;;;;17.13;8.27;;;;;;;;;;5016220;28;20189;-73
2024/01/01 00:41:37;;;;;;;13.47;6.10;;;7.70;1.00;;;;;;5038096;28;20248;-73
2024/01/01 00:44:06;;;;;;;11.00;5.50;;;7.80;1.00;;;;;;5031943;28;20433;-72
2024/01/01 00:46:31;;;;;;;8.83;4.77;;;7.70;1.00;;;;;;5010539;28;20590;-73
2024/01/01 00:48:57;;;;;;;12.00;5.57;;;7.80;1.00;;;;;;5011372;28;20507;-72
2024/01/01 00:51:23;;;;;;;10.27;5.07;;;7.90;1.00;;;;;;5027758;28;20214;-73
2024/01/01 00:53:48;;;;;;;11.77;5.80;;;8.00;1.00;;;;;;5028754;28;20188;-72
2024/01/01 00:56:14;;;;;;;17.20;5.50;;;8.00;1.00;;;;;;5011357;28;20331;-72
2024/01/01 00:58:40;;;;;;;13.87;6.13;;;8.10;1.00;;;;;;5033789;28;20699;-73
2024/01/01 01:01:07;;;;;;;11.47;5.40;;;8.10;1.00;;;;;;5028721;28;20225;-72
2024/01/01 01:03:34;;;;;;;9.73;4.60;;;8.20;1.00;;;;;;5042300;28;20462;-72
2024/01/01 01:06:00;;;;;;;7.50;4.27;;;8.20;1.00;;;;;;5015012;28;20475;-72
2024/01/01 01:08:25;;;;;;;11.30;5.67;;;8.20;1.00;;;;;;5033312;28;20485;-72
2024/01/01 01:10:51;;;;;;;8.17;4.50;;;8.30;1.00;;;;;;5037159;28;20206;-72
2024/01/01 01:13:16;;;;;;;6.77;3.97;;;8.20;1.00;;;;;;5022986;28;20187;-72
2024/01/01 01:15:42;;;;;;;9.87;4.50;;;8.30;1.00;;;;;;5034741;28;20192;-72
2024/01/01 01:18:07;;;;;;;6.00;3.53;;;8.30;1.00;;;;;;5032431;28;20193;-72
2024/01/01 01:20:33;;;;;;;10.97;4.10;;;8.40;1.00;;;;;;5034762;28;20218;-72
2024/01/01 01:22:59;;;;;;;7.93;4.00;;;8.40;1.00;;;;;;5042241;28;20189;-72
2024/01/01 01:25:24;;;;;;;5.67;3.50;;;8.40;1.00;;;;;;5049139;28;20555;-72
2024/01/01 01:27:50;;;;;;;8.43;3.63;;;8.40;1.00;;;;;;5014996;28;20190;-72
2024/01/01 01:30:15;;;;;;;16.93;4.00;;;8.50;1.00;;;;;;5032256;28;20213;-72
2024/01/01 01:32:41;;;;;;;4.90;3.30;;;8.50;1.00;;;;;;5040869;28;20215;-72
2024/01/01 01:35:07;;;;;;;10.50;4.10;;;8.60;1.00;;;;;;5023168;28;20182;-72
2024/01/01 01:37:33;;;;;;;10.00;4.00;;;8.60;1.00;;;;;;5022346;28;20194;-72
2024/01/01 01:39:58;;;;;;;7.97;3.67;;;8.60;1.00;;;;;;5017785;28;20228;-71
2024/01/01 01:42:24;;;;;;;10.10;4.07;;;8.60;1.00;;;;;;5039754;28;20564;-72
2024/01/01 01:44:49;;;;;;;10.03;3.93;;;8.60;1.00;;;;;;5021984;28;20181;-73
2024/01/01 01:47:15;;;;;;;7.00;4.00;;;8.60;1.00;;;;;;5036402;28;20404;-72
2024/01/01 01:49:41;;;;;;;7.37;3.30;;;8.70;1.00;;;;;;5042938;28;20216;-72
2024/01/01 01:52:09;;;;;;;8.87;3.57;;;8.70;1.00;;;;;;5018845;28;20192;-72
2024/01/01 01:54:36;;;;;;;7.07;3.33;;;8.60;1.00;;;;;;5021944;28;21167;-72
2024/01/01 01:57:03;;;;;;;6.70;3.20;;;8.70;1.00;;;;;;5033905;28;20429;-72
2024/01/01 01:59:29;;;;;;;6.90;3.33;;;8.70;1.00;;;;;;5039764;28;20432;-72
2024/01/01 02:01:56;;;;;;;7.17;3.30;;;8.70;1.00;;;;;;5039842;28;20472;-71
2024/01/01 02:04:23;;;;;;;7.70;3.13;;;8.70;1.00;;;;;;5037649;28;20460;-72
2024/01/01 02:06:48;;;;;;;8.50;3.37;;;8.80;1.00;;;;;;5044020;28;20454;-72
2024/01/01 02:09:14;;;;;;;6.53;3.60;;;8.80;1.00;;;;;;5035782;28;20947;-72
2024/01/01 02:11:39;;;;;;;5.50;3.10;;;8.70;1.00;;;;;;5039723;28;20186;-72
2024/01/01 02:14:12;;;;;;;7.30;3.10;;;8.70;1.00;;;;;;5030887;28;20190;-72
2024/01/01 02:16:41;;;;;;;7.70;3.40;;;8.70;1.00;;;;;;5030811;28;20268;-72
2024/01/01 02:19:19;;;;;;;5.53;3.37;;;8.70;1.00;;;;;;5013437;28;20429;-71
2024/01/01 02:21:45;;;;;;;9.13;3.27;;;8.80;1.00;;;;;;5034178;28;21217;-72
2024/01/01 02:24:11;;;;;;;6.93;3.20;;;8.80;1.00;;;;;;5039931;28;20490;-73
2024/01/01 02:26:36;;;;;;;6.83;3.30;;;8.80;1.00;;;;;;5049976;28;20423;-72
2024/01/01 02:29:02;;;;;;;6.77;3.13;;;8.70;1.00;;;;;;5019438;28;20661;-72
2024/01/01 02:31:27;;;;;;;7.40;3.20;;;8.70;1.00;;;;;;5013493;28;20217;-72
2024/01/01 02:33:53;;;;;;;5.20;4.03;;;8.70;1.00;;;;;;5038356;28;20190;-72
2024/01/01 02:36:18;;;;;;;12.87;3.23;;;8.70;1.00;;;;;;5027159;28;20187;-72
2024/01/01 02:38:44;;;;;;;4.53;2.83;;;8.70;1.00;;;;;;5016082;28;20193;-73
2024/01/01 02:41:10;;;;;;;8.10;3.20;;;8.60;1.00;;;;;;5035969;28;20623;-73
2024/01/01 02:43:35;;;;;;;8.17;3.40;;;8.60;1.00;;;;;;5029967;28;20239;-72
2024/01/01 02:46:01;;;;;;;5.67;3.40;;;8.60;1.00;;;;;;5037064;28;20186;-72
2024/01/01 02:48:26;;;;;;;4.40;3.07;;;8.60;1.00;;;;;;5034113;28;20679;-72
2024/01/01 02:50:52;;;;;;;8.53;3.47;;;8.60;1.00;;;;;;5021193;28;20545;-72
2024/01/01 02:53:18;;;;;;;4.23;2.87;;;8.60;1.00;;;;;;5020340;28;20280;-72
2024/01/01 02:55:44;;;;;;;6.57;3.60;;;8.60;1.00;;;;;;5041404;28;20745;-72
2024/01/01 02:58:10;;;;;;;7.80;2.97;;;8.60;1.00;;;;;;5035757;28;20182;-72
2024/01/01 03:00:35;;;;;;;8.43;3.37;;;8.60;1.00;;;;;;5048248;28;20220;-71
2024/01/01 03:03:01;;;;;;;4.30;2.97;;;8.50;1.00;;;;;;5026531;28;20319;-72
2024/01/01 03:05:27;;;;;;;11.50;3.40;;;8.50;1.00;;;;;;5032952;28;20260;-72
2024/01/01 03:07:52;;;;;;;5.23;3.10;;;8.60;1.00;;;;;;5012556;28;20254;-72
2024/01/01 03:10:18;;;;;;;5.80;3.30;;;8.50;1.00;;;;;;5019870;28;20208;-71
2024/01/01 03:12:43;;;;;;;4.27;2.60;;;8.50;1.00;;;;;;5033666;28;20181;-72
2024/01/01 03:15:09;;;;;;;3.83;2.57;;;8.50;1.00;;;;;;5040370;23;20813;-76
2024/01/01 03:17:35;;;;;;;12.47;2.93;;;8.50;1.00;;;;;;5043003;28;20223;-74
2024/01/01 03:20:01;;;;;;;6.33;2.80;;;8.50;1.00;;;;;;5028535;28;20181;-75
2024/01/01 03:22:27;;;;;;;4.50;2.60;;;8.50;1.00;;;;;;5035280;28;20199;-72
2024/01/01 03:24:52;;;;;;;4.20;2.50;;;8.40;1.00;;;;;;5046599;28;20448;-74
2024/01/01 03:27:18;;;;;;;7.70;2.67;;;8.50;1.00;;;;;;5042509;28;20201;-75
2024/01/01 03:29:44;;;;;;;6.70;2.83;;;8.40;1.00;;;;;;5038418;28;20540;-74
2024/01/01 03:32:09;;;;;;;4.50;2.43;;;8.40;1.00;;;;;;5044151;28;20211;-74
2024/01/01 03:34:35;;;;;;;4.90;2.33;;;8.40;1.00;;;;;;5047684;28;20181;-75
2024/01/01 03:37:01;;;;;;;9.00;3.00;;;8.40;1.00;;;;;;5053260;28;20178;-76
2024/01/01 03:39:27;;;;;;;4.90;3.00;;;8.50;1.00;;;;;;5037601;28;20234;-74
2024/01/01 03:41:53;;;;;;;10.10;2.83;;;8.40;1.00;;;;;;5035795;28;20562;-74
2024/01/01 03:44:18;;;;;;;3.60;2.20;;;8.30;1.00;;;;;;5049390;28;20430;-75
2024/01/01 03:46:45;;;;;;;10.83;2.70;;;8.30;1.00;;;;;;5039892;28;20730;-73
2024/01/01 03:49:11;;;;;;;5.17;2.20;;;8.30;1.00;;;;;;5042981;28;20200;-76
2024/01/01 03:51:36;;;;;;;7.63;2.73;;;8.30;1.00;;;;;;5050451;28;20469;-73
2024/01/01 03:54:02;;;;;;;5.43;2.63;;;8.30;1.00;;;;;;5049453;28;20659;-75
2024/01/01 03:56:27;;;;;;;5.10;2.30;;;8.20;1.00;;;;;;5035279;28;20214;-75
2024/01/01 03:58:53;;;;;;;13.13;2.60;;;8.00;1.00;;;;;;5056864;28;20181;-74
2024/01/01 04:01:22;;;;;;;5.87;2.63;;;8.20;1.00;;;;;;5057499;28;20208;-72
2024/01/01 04:03:47;;;;;;;3.90;2.20;;;8.20;1.00;;;;;;5065225;28;20191;-75
2024/01/01 04:06:13;;;;;;;4.90;2.40;;;8.10;1.00;;;;;;5054624;28;21169;-75
2024/01/01 04:08:38;;;;;;;4.90;2.40;;;8.10;1.00;;;;;;5054669;28;20323;-75
2024/01/01 04:11:04;;;;;;;20.70;2.30;;;8.10;1.00;;;;;;5055995;28;20327;-72
2024/01/01 04:13:29;;;;;;;12.40;2.20;;;8.10;1.00;;;;;;5057288;28;20266;-75
2024/01/01 04:15:55;;;;;;;2.63;1.90;;;8.20;1.00;;;;;;5054534;28;20213;-71
2024/01/01 04:18:20;;;;;;;5.47;2.00;;;8.20;1.00;;;;;;5054770;28;20184;-75
2024/01/01 04:20:46;;;;;;;4.13;2.77;;;8.20;1.00;;;;;;5045283;28;20185;-74
2024/01/01 04:23:11;;;;;;;5.97;1.93;;;8.30;1.00;;;;;;5042100;28;20260;-75
2024/01/01 04:25:37;;;;;;;6.10;2.37;;;8.30;1.00;;;;;;5046818;28;20270;-75
2024/01/01 04:28:02;;;;;;;7.00;2.20;;;8.30;1.00;;;;;;5062332;28;20252;-76
2024/01/01 04:30:28;;;;;;;3.33;1.80;;;8.30;1.00;;;;;;5059824;28;20820;-75
2024/01/01 04:32:53;;;;;;;8.10;2.67;;;8.30;1.00;;;;;;5045362;28;20189;-75
2024/01/01 04:35:19;;;;;;;4.63;2.03;;;8.40;1.00;;;;;;5034992;28;20288;-74
2024/01/01 04:37:44;;;;;;;6.00;2.30;;;8.30;1.00;;;;;;5053130;28;20663;-74
2024/01/01 04:40:10;;;;;;;7.70;2.13;;;8.40;1.00;;;;;;5043565;28;20184;-74
2024/01/01 04:42:35;;;;;;;12.77;2.30;;;8.30;1.00;;;;;;5037649;28;20205;-74
2024/01/01 04:45:01;;;;;;;3.00;1.80;;;8.30;1.00;;;;;;5033036;28;20196;-74
2024/01/01 04:47:26;;;;;;;6.27;2.00;;;8.30;1.00;;;;;;5041227;28;20205;-74
2024/01/01 04:49:52;;;;;;;4.80;1.90;;;8.20;1.00;;;;;;5049830;28;20189;-74
2024/01/01 04:52:17;;;;;;;8.20;2.00;;;8.20;1.00;;;;;;5057221;28;20208;-76
2024/01/01 04:54:43;;;;;;;9.07;2.40;;;8.20;1.00;;;;;;5054315;28;20868;-74
2024/01/01 04:57:08;;;;;;;4.80;2.10;;;8.20;1.00;;;;;;5038225;28;20253;-74
2024/01/01 04:59:34;;;;;;;5.60;2.10;;;8.20;1.00;;;;;;5050507;28;20220;-73
2024/01/01 05:01:59;;;;;;;5.90;2.40;;;8.10;1.00;;;;;;5043446;28;20293;-75
2024/01/01 05:04:25;;;;;;;3.70;1.90;;;7.70;1.00;;;;;;5034768;28;20201;-75
2024/01/01 05:06:50;;;;;;;4.93;1.73;;;7.70;1.00;;;;;;5045729;28;20189;-74
2024/01/01 05:09:16;;;;;;;5.80;2.10;;;7.60;1.00;;;;;;5039576;28;20666;-75
2024/01/01 05:11:41;;;;;;;6.07;1.90;;;7.50;1.00;;;;;;5029392;28;20196;-74
2024/01/01 05:14:08;;;;;;;8.10;1.90;;;7.40;1.00;;;;;;5053699;28;20559;-75
2024/01/01 05:16:34;;;;;;;8.10;1.87;;;7.40;1.00;;;;;;5039973;28;20683;-74
2024/01/01 05:19:00;;;;;;;9.63;2.30;;;7.40;1.00;;;;;;5044338;28;20430;-75
2024/01/01 05:21:26;;;;;;;6.20;1.90;;;7.40;1.00;;;;;;5035590;28;20546;-74
2024/01/01 05:23:51;;;;;;;9.03;2.13;;;7.30;1.00;;;;;;5040490;28;20197;-74
2024/01/01 05:26:17;;;;;;;5.33;1.47;;;7.20;1.00;;;;;;5057884;28;20211;-74
2024/01/01 05:28:42;;;;;;;5.07;1.83;;;7.20;1.00;;;;;;5042731;28;21896;-74
2024/01/01 05:31:08;;;;;;;6.83;1.80;;;7.10;1.00;;;;;;5051722;28;20187;-71
2024/01/01 05:33:35;;;;;;;3.00;1.80;;;7.10;1.00;;;;;;5060584;28;20204;-74
2024/01/01 05:36:00;;;;;;;5.80;1.73;;;7.10;1.00;;;;;;5038908;28;20849;-74
2024/01/01 05:38:26;;;;;;;10.63;1.70;;;7.00;1.00;;;;;;5054414;28;20430;-75
2024/01/01 05:40:52;;;;;;;3.10;1.80;;;7.00;1.00;;;;;;5047501;28;20611;-75
2024/01/01 05:43:21;;;;;;;7.40;2.03;;;7.30;1.00;;;;;;5054263;28;20197;-74
2024/01/01 05:45:47;;;;;;;9.10;1.67;;;6.90;1.00;;;;;;5042492;28;20201;-74
2024/01/01 05:48:13;;;;;;;4.00;1.50;;;7.10;1.00;;;;;;5050493;28;20425;-75
2024/01/01 05:50:38;;;;;;;3.37;1.43;;;7.40;1.00;;;;;;5060198;28;20853;-72
2024/01/01 05:53:05;;;;;;;6.97;1.87;;;7.40;1.00;;;;;;5031840;28;20236;-73
2024/01/01 05:55:30;;;;;;;4.70;1.60;;;7.20;1.00;;;;;;5055188;28;20296;-76
2024/01/01 05:57:56;;;;;;;13.53;2.00;;;7.50;1.00;;;;;;5051638;28;20502;-75
2024/01/01 06:00:21;;;;;;;8.73;2.00;;;7.20;1.00;;;;;;5055988;28;20209;-74
2024/01/01 06:02:47;;;;;;;4.60;1.30;;;7.20;1.00;;;;;;5036718;28;20201;-74
2024/01/01 06:05:13;;;;;;;3.40;1.13;;;7.30;1.00;;;;;;5053625;28;20604;-75
2024/01/01 06:07:38;;;;;;;4.10;1.30;;;7.30;1.00;;;;;;5050864;28;20235;-75
2024/01/01 06:10:04;;;;;;;7.60;1.40;;;7.30;1.00;;;;;;5046382;28;20230;-75
2024/01/01 06:12:30;;;;;;;7.10;1.60;;;7.40;1.00;;;;;;5058977;28;20190;-75
2024/01/01 06:14:55;;;;;;;8.27;1.73;;;7.60;1.00;;;;;;5058769;28;20684;-75
2024/01/01 06:17:21;;;;;;;2.90;1.10;;;7.70;1.00;;;;;;5046655;28;20188;-75
2024/01/01 06:19:48;;;;;;;2.17;1.20;;;7.90;1.00;;;;;;5066190;28;20321;-75
2024/01/01 06:22:14;;;;;;;5.70;2.00;;;8.00;1.00;;;;;;5062687;28;20203;-76
2024/01/01 06:24:39;;;;;;;2.47;1.20;;;7.70;1.00;;;;;;5051709;28;20971;-75
2024/01/01 06:27:05;;;;;;;5.27;1.63;;;7.70;1.00;;;;;;5053694;28;20181;-74
2024/01/01 06:29:30;;;;;;;5.43;1.33;;;7.60;1.00;;;;;;5057320;28;20188;-75
2024/01/01 06:31:57;;;;;;;3.60;1.40;;;7.70;1.00;;;;;;5054456;28;20608;-75
2024/01/01 06:34:23;;;;;;;3.70;1.30;;;7.80;1.00;;;;;;5054458;28;20184;-74
2024/01/01 06:36:48;;;;;;;5.57;1.50;;;7.80;1.00;;;;;;5047383;28;20515;-74
2024/01/01 06:39:14;;;;;;;4.30;1.33;;;7.90;1.00;;;;;;5032709;28;20610;-74
2024/01/01 06:41:40;;;;;;;3.83;1.40;;;7.90;1.00;;;;;;5033984;28;20578;-73
2024/01/01 06:44:05;;;;;;;2.97;1.50;;;8.00;1.00;;;;;;5053226;28;20434;-74
2024/01/01 06:46:31;;;;;;;7.13;1.53;;;7.90;1.00;;;;;;5049012;28;20209;-76
2024/01/01 06:48:56;;;;;;;6.10;1.80;;;7.90;1.00;;;;;;5039192;28;20276;-74
2024/01/01 06:51:22;;;;;;;5.07;1.53;;;8.00;1.00;;;;;;5038786;28;20570;-74
2024/01/01 06:53:47;;;;;;;9.53;1.80;;;7.90;1.00;;;;;;5048132;28;20189;-74
2024/01/01 06:56:13;;;;;;;2.33;1.27;;;7.90;1.00;;;;;;5051347;28;20213;-74
2024/01/01 06:58:38;;;;;;;2.73;1.50;;;7.90;1.00;;;;;;5036887;28;20273;-74
2024/01/01 07:01:04;;;;;;;6.03;1.40;;;8.20;1.00;;;;;;5055454;28;20212;-74
2024/01/01 07:03:29;;;;;;;3.03;1.13;;;7.90;1.00;;;;;;5041320;28;20186;-75
2024/01/01 07:05:55;;;;;;;2.50;1.47;;;7.80;1.00;;;;;;5041737;28;20317;-77
2024/01/01 07:08:23;;;;;;;8.23;1.70;;;8.00;1.00;;;;;;5044396;28;20589;-76
2024/01/01 07:10:48;;;;;;;5.27;1.77;;;7.80;1.00;;;;;;5055110;28;20658;-75
2024/01/01 07:13:14;;;;;;;5.60;1.80;;;7.80;1.00;;;;;;5061407;28;20426;-75
2024/01/01 07:15:39;;;;;;;7.90;2.43;;;7.70;1.00;;;;;;5059717;28;20631;-74
2024/01/01 07:18:06;;;;;;;4.80;1.40;;;7.70;1.00;;;;;;5048608;28;20181;-74
2024/01/01 07:20:32;;;;;;;6.13;1.33;;;;;;;;;;5043244;28;20181;-75
2024/01/01 07:22:57;;;;;;;4.70;1.37;;;7.70;1.00;;;;;;5046632;28;20514;-75
2024/01/01 07:25:24;;;;;;;3.33;1.33;;;7.60;1.00;;;;;;5038093;28;20213;-76
2024/01/01 07:27:50;;;;;;;4.77;1.50;;;7.80;1.00;;;;;;5034566;28;20652;-75
2024/01/01 07:30:15;;;;;;;6.40;1.70;;;7.70;1.00;;;;;;5045025;28;20528;-75
2024/01/01 07:32:41;;;;;;;9.77;1.73;;;7.70;1.00;;;;;;5036687;28;20223;-74
2024/01/01 07:35:08;;;;;;;4.53;1.57;;;7.70;1.00;;;;;;5051042;28;20204;-75
2024/01/01 07:37:34;;;;;;;2.33;1.30;;;7.70;1.00;;;;;;5039907;28;20268;-75
2024/01/01 07:40:00;;;;;;;5.73;1.53;;;7.80;1.00;;;;;;5049288;28;20437;-74
2024/01/01 07:42:26;;;;;;;8.27;3.60;;;7.90;1.00;;;;;;5043854;28;20463;-75
2024/01/01 07:44:52;;;;;;;3.00;1.93;;;8.00;1.00;;;;;;5045483;28;20197;-73
2024/01/01 07:47:19;;;;;;;6.60;1.67;;;8.40;1.00;;;;;;5044781;28;20758;-74
2024/01/01 07:49:45;;;;;;;2.40;1.27;;;8.10;1.00;;;;;;5037253;28;20183;-74
2024/01/01 07:52:14;;;;;;;8.60;1.90;;;8.10;1.00;;;;;;5052902;28;20427;-74
2024/01/01 07:54:39;;;;;;;5.17;1.40;;;8.30;1.00;;;;;;5055150;28;20209;-74
2024/01/01 07:57:09;;;;;;;9.57;2.93;;;8.30;1.00;;;;;;5040348;28;20965;-74
2024/01/01 07:59:34;;;;;;;5.40;2.50;;;8.40;1.00;;;;;;5053639;28;20270;-76
2024/01/01 08:02:00;;;;;;;7.13;1.83;;;8.50;1.00;;;;;;5057549;28;20505;-75
2024/01/01 08:04:26;;;;;;;6.23;1.50;;;8.60;1.00;;;;;;5049144;28;20229;-74
2024/01/01 08:06:52;;;;;;;3.47;1.27;;;8.60;1.00;;;;;;5048863;28;20185;-73
2024/01/01 08:09:17;;;;;;;2.27;1.23;;;8.50;1.00;;;;;;5039071;28;20450;-74
2024/01/01 08:11:43;;;;;;;7.37;1.60;;;8.50;1.00;;;;;;5033179;28;20208;-75
2024/01/01 08:14:08;;;;;;;5.37;1.70;;;8.50;1.00;;;;;;5049439;28;20207;-73
2024/01/01 08:16:34;;;;;;;6.10;1.77;;;8.40;1.00;;;;;;5049013;28;20217;-74
2024/01/01 08:19:00;;;;;;;5.13;1.27;;;8.40;1.00;;;;;;5039104;28;20259;-74
2024/01/01 08:21:25;;;;;;;3.37;1.50;;;8.40;1.00;;;;;;5045847;28;20216;-76
2024/01/01 08:23:51;;;;;;;9.23;1.63;;;8.50;1.00;;;;;;5037924;28;20188;-75
2024/01/01 08:26:16;;;;;;;2.37;1.30;;;8.50;1.00;;;;;;5050338;28;20201;-72
2024/01/01 08:28:42;;;;;;;2.90;1.50;;;8.60;1.00;;;;;;5046211;28;20190;-75
2024/01/01 08:31:07;;;;;;;3.90;1.77;;;8.70;1.00;;;;;;5050646;28;20180;-73
2024/01/01 08:33:33;;;;;;;2.63;1.37;;;8.90;1.00;;;;;;5037846;28;20244;-74
2024/01/01 08:35:58;;;;;;;4.63;1.23;;;8.90;1.00;;;;;;5045294;28;20200;-74
2024/01/01 08:38:24;;;;;;;3.83;1.60;;;8.80;1.00;;;;;;5049706;28;20669;-75
2024/01/01 08:40:51;;;;;;;3.73;1.20;;;8.90;1.00;;;;;;5068628;28;20291;-73
2024/01/01 08:43:16;;;;;;;6.77;1.50;;;8.90;1.00;;;;;;5051603;28;20207;-74
2024/01/01 08:45:42;;;;;;;5.40;1.63;;;9.00;1.00;;;;;;5041354;28;20978;-76
2024/01/01 08:48:07;;;;;;;8.77;1.80;;;7.90;1.00;;;;;;5034221;28;20182;-73
2024/01/01 08:50:33;;;;;;;3.30;1.90;;;9.00;1.00;;;;;;5059524;28;20184;-75
2024/01/01 08:52:59;;;;;;;6.33;1.97;;;9.00;1.00;;;;;;5042894;28;20240;-75
2024/01/01 08:55:24;;;;;;;6.60;1.20;;;8.90;1.00;;;;;;5043565;28;20209;-75
2024/01/01 08:57:50;;;;;;;3.50;1.27;;;9.00;1.00;;;;;;5053281;28;20226;-73
2024/01/01 09:00:18;;;;;;;7.27;1.43;;;8.90;1.00;;;;;;5059962;28;20199;-73
2024/01/01 09:02:44;;;;;;;5.80;1.40;;;8.90;1.00;;;;;;5055084;28;20239;-74
2024/01/01 09:05:09;;;;;;;3.60;1.60;;;9.10;1.00;;;;;;5047903;28;20518;-75
2024/01/01 09:07:35;;;;;;;3.43;1.17;;;9.10;1.00;;;;;;5060178;28;20173;-74
2024/01/01 09:10:02;;;;;;;3.50;1.20;;;9.10;1.00;;;;;;5047836;28;20216;-75
2024/01/01 09:12:28;;;;;;;2.80;1.50;;;9.40;1.00;;;;;;5046474;28;20188;-73
2024/01/01 09:14:54;;;;;;;5.17;1.70;;;9.50;1.00;;;;;;5054730;28;20459;-75
2024/01/01 09:17:19;;;;;;;3.13;1.27;;;9.50;1.00;;;;;;5046884;28;20436;-75
2024/01/01 09:19:45;;;;;;;8.40;1.73;;;9.70;1.00;;;;;;5050272;28;20212;-74
2024/01/01 09:22:10;;;;;;;4.50;1.63;;;9.70;1.00;;;;;;5053061;28;20193;-74
2024/01/01 09:24:36;;;;;;;8.40;1.70;;;9.90;1.00;;;;;;5059159;28;20254;-74
2024/01/01 09:27:01;;;;;;;4.87;1.60;;;9.90;1.00;;;;;;5043010;28;20265;-73
2024/01/01 09:29:27;;;;;;;3.27;1.10;;;10.10;1.00;;;;;;5060827;28;20184;-74
2024/01/01 09:31:52;;;;;;;7.53;1.60;;;10.20;1.00;;;;;;5057308;28;20714;-74
2024/01/01 09:34:18;;;;;;;5.73;1.60;;;10.10;1.00;;;;;;5058767;28;20188;-75
2024/01/01 09:36:43;;;;;;;5.03;1.47;;;10.50;1.00;;;;;;5049222;28;20785;-75
2024/01/01 09:39:09;;;;;;;10.27;1.67;;;10.50;1.00;;;;;;5051099;28;20185;-76
2024/01/01 09:41:34;;;;;;;6.93;1.90;;;10.50;1.00;;;;;;5038700;28;20289;-75
2024/01/01 09:44:01;;;;;;;7.27;1.30;;;10.70;1.00;;;;;;5045404;28;20666;-74
2024/01/01 09:46:32;;;;;;;5.33;1.60;;;10.90;1.00;;;;;;5045690;28;20212;-74
2024/01/01 09:49:01;;;;;;;7.00;1.90;;;10.90;1.00;;;;;;5047651;28;20515;-75
2024/01/01 09:51:27;;;;;;;6.17;1.77;;;10.60;1.00;;;;;;5046599;28;20437;-73
2024/01/01 09:53:53;;;;;;;5.60;2.10;;;10.60;1.00;;;;;;5059163;28;20427;-74
2024/01/01 09:56:20;;;;;;;3.67;1.60;;;10.50;1.00;;;;;;5054950;28;20206;-75
2024/01/01 09:58:45;;;;;;;4.10;1.93;;;10.30;1.00;;;;;;5039095;28;20659;-73
2024/01/01 10:01:19;;;;;;;6.93;2.70;;;10.10;1.00;;;;;;5050180;28;20464;-72
2024/01/01 10:04:03;;;;;;;9.00;3.10;;;9.90;1.00;;;;;;5056347;28;20212;-75
2024/01/01 10:06:30;;;;;;;8.40;3.20;;;9.80;1.00;;;;;;5038867;28;20537;-75
2024/01/01 10:09:08;;;;;;;9.73;3.40;;;9.80;1.00;;;;;;5049382;28;20417;-75
2024/01/01 10:11:34;;;;;;;8.20;1.80;;;10.30;1.00;;;;;;5062700;28;20424;-75
2024/01/01 10:14:06;;;;;;;5.23;2.27;;;9.80;1.00;;;;;;5038193;28;20526;-75
2024/01/01 10:16:31;;;;;;;5.80;2.93;;;9.70;1.00;;;;;;5047589;28;20474;-75
2024/01/01 10:19:00;;;;;;;8.90;3.20;;;9.70;1.00;;;;;;5056603;28;20951;-76
2024/01/01 10:21:30;;;;;;;5.43;2.80;;;9.70;1.00;;;;;;5059223;28;20197;-75
2024/01/01 10:23:57;;;;;;;7.60;3.17;;;9.80;1.00;;;;;;5052358;28;20442;-75
2024/01/01 10:26:23;;;;;;;6.50;2.90;;;10.40;1.00;;;;;;5049740;28;20450;-75
2024/01/01 10:28:48;;;;;;;5.47;2.23;;;10.80;1.00;;;;;;5063316;28;20411;-71
2024/01/01 10:31:15;;;;;;;4.60;1.73;;;10.90;1.00;;;;;;5054264;28;20177;-75
2024/01/01 10:33:41;;;;;;;6.80;3.37;;;11.30;1.00;;;;;;5059806;28;20189;-75
2024/01/01 10:36:07;;;;;;;5.27;2.50;;;11.10;1.00;;;;;;5063371;28;20470;-74
2024/01/01 10:38:34;;;;;;;4.07;1.40;;;11.10;1.00;;;;;;5049466;28;20459;-75
2024/01/01 10:41:01;;;;;;;4.47;1.53;;;11.10;1.00;;;;;;5050176;28;20188;-75
2024/01/01 10:43:27;;;;;;;4.73;1.73;;;11.20;1.00;;;;;;5039110;28;20430;-75
2024/01/01 10:46:04;;;;;;;5.10;1.80;;;10.80;1.00;;;;;;5042132;28;20919;-75
2024/01/01 10:48:35;;;;;;;7.73;1.50;;;10.60;1.00;;;;;;5056537;28;20431;-75
2024/01/01 10:51:24;;;;;;;7.77;1.63;;;10.60;1.00;;;;;;5042444;28;20793;-75
2024/01/01 10:54:17;;;;;;;5.00;1.70;;;10.80;1.00;;;;;;5051098;28;20415;-75
2024/01/01 10:57:04;;;;;;;5.53;1.97;;;11.10;1.00;;;;;;5050374;28;20832;-75
2024/01/01 10:59:46;;;;;;;9.63;1.97;;;11.40;1.00;;;;;;5055846;28;20422;-74
2024/01/01 11:02:11;;;;;;;6.80;1.60;;;11.70;1.00;;;;;;5069536;28;20458;-75
2024/01/01 11:04:37;;;;;;;5.50;1.57;;;11.30;1.00;;;;;;5050552;28;20420;-75
2024/01/01 11:07:03;;;;;;;9.03;1.63;;;11.20;1.00;;;;;;5059523;28;20178;-75
2024/01/01 11:09:30;;;;;;;5.63;1.67;;;11.00;1.00;;;;;;5051526;28;20177;-75
2024/01/01 11:11:56;;;;;;;6.70;2.00;;;10.90;1.00;;;;;;5064061;28;21004;-75
2024/01/01 11:14:48;;;;;;;7.20;1.63;;;10.40;1.00;;;;;;5049883;28;20889;-75
2024/01/01 11:17:22;;;;;;;6.28;2.20;;;10.30;1.00;;;;;;5063686;28;20422;-77
2024/01/01 11:19:48;;;;;;;5.80;2.03;;;10.30;1.00;;;;;;5034896;28;20177;-75
2024/01/01 11:22:20;;;;;;;5.43;1.87;;;10.30;1.00;;;;;;5045611;28;20541;-76
2024/01/01 11:24:46;;;;;;;11.43;3.33;;;10.20;1.00;;;;;;5050734;28;20206;-75
2024/01/01 11:27:31;;;;;;;13.00;3.53;;;10.10;1.00;;;;;;5040534;28;20427;-76
2024/01/01 11:30:07;;;;;;;7.83;2.17;;;10.40;1.00;;;;;;5048267;28;20931;-74
2024/01/01 11:32:34;;;;;;;5.80;1.80;;;10.50;1.00;;;;;;5041839;28;20454;-75
2024/01/01 11:35:05;;;;;;;8.17;2.60;;;10.40;1.00;;;;;;5048464;28;20495;-75
2024/01/01 11:37:31;;;;;;;7.80;1.77;;;10.40;1.00;;;;;;5034413;28;20746;-75
2024/01/01 11:40:00;;;;;;;5.00;1.80;;;10.30;1.00;;;;;;5044533;28;20451;-75
2024/01/01 11:42:27;;;;;;;7.60;1.70;;;10.30;1.00;;;;;;5031968;28;20209;-74
2024/01/01 11:45:06;;;;;;;20.00;7.33;;;10.40;1.00;;;;;;5036323;28;20456;-77
2024/01/01 11:47:32;;;;;;;7.03;2.17;;;10.40;1.00;;;;;;5049911;28;20522;-75
2024/01/01 11:49:57;;;;;;;11.13;3.27;;;10.40;1.00;;;;;;5051247;28;20516;-75
2024/01/01 11:52:23;;;;;;;6.30;1.67;;;10.40;1.00;;;;;;5049834;28;20798;-76
2024/01/01 11:54:48;;;;;;;11.10;1.93;;;10.30;1.00;;;;;;5051603;28;20200;-74
2024/01/01 11:57:14;;;;;;;8.50;2.10;;;10.40;1.00;;;;;;5033494;28;20208;-75
2024/01/01 11:59:40;;;;;;;10.57;2.23;;;10.20;1.00;;;;;;5036844;28;20184;-76
2024/01/01 12:02:06;;;;;;;9.03;1.97;;;10.20;1.00;;;;;;5056738;28;20205;-76
2024/01/01 12:04:32;;;;;;;6.57;2.37;;;10.30;1.00;;;;;;5046348;28;20690;-74
2024/01/01 12:06:57;;;;;;;9.27;2.00;;;10.30;1.00;;;;;;5054039;28;20420;-75
2024/01/01 12:09:23;;;;;;;9.10;1.80;;;10.30;1.00;;;;;;5051475;28;20432;-73
2024/01/01 12:11:49;;;;;;;7.00;2.13;;;10.30;1.00;;;;;;5039307;28;20181;-74
2024/01/01 12:14:22;;;;;;;9.13;1.93;;;10.30;1.00;;;;;;5040538;28;20417;-74
2024/01/01 12:16:48;;;;;;;6.40;2.40;;;10.30;1.00;;;;;;5045872;28;20671;-76
2024/01/01 12:19:13;;;;;;;7.13;2.40;;;10.20;1.00;;;;;;5055429;28;20434;-75
2024/01/01 12:21:44;;;;;;;5.53;1.97;;;10.30;1.00;;;;;;5049443;28;20196;-75
2024/01/01 12:24:15;;;;;;;3.00;1.60;;;10.30;1.00;;;;;;5052752;28;20172;-74
2024/01/01 12:26:40;;;;;;;5.30;2.00;;;10.30;1.00;;;;;;5036537;28;20478;-73
2024/01/01 12:29:17;;;;;;;13.53;3.77;;;10.20;1.00;;;;;;5049457;28;20447;-74
2024/01/01 12:31:44;;;;;;;3.10;1.57;;;10.20;1.00;;;;;;5044583;28;20173;-74
2024/01/01 12:34:15;;;;;;;6.07;1.57;;;10.20;1.00;;;;;;5061615;28;20431;-74
2024/01/01 12:36:43;;;;;;;4.73;1.60;;;10.40;1.00;;;;;;5040344;28;20435;-74
2024/01/01 12:39:10;;;;;;;5.00;1.63;;;10.50;1.00;;;;;;5040261;28;20428;-75
2024/01/01 12:41:36;;;;;;;5.40;1.80;;;10.70;1.00;;;;;;5054698;28;20521;-74
2024/01/01 12:44:01;;;;;;;11.37;2.10;;;10.90;1.00;;;;;;5063259;28;20410;-76
2024/01/01 12:46:27;;;;;;;6.13;1.67;;;10.80;1.00;;;;;;5040572;28;20433;-73
2024/01/01 12:48:53;;;;;;;4.80;1.73;;;10.80;1.00;;;;;;5032494;28;20227;-75
2024/01/01 12:51:23;;;;;;;6.43;1.50;;;10.90;1.00;;;;;;5027375;28;20252;-74
2024/01/01 12:53:52;;;;;;;10.60;2.57;;;11.10;1.00;;;;;;5056081;28;20204;-75
2024/01/01 12:56:18;;;;;;;9.30;2.00;;;11.50;1.00;;;;;;5048753;28;20447;-74
2024/01/01 12:58:43;;;;;;;8.53;2.47;;;11.70;1.00;;;;;;5049165;28;20518;-72